Time;durP1;ratioP1;P1;durP2;ratioP2;P2;SDS_P1;SDS_P2;PMS_P1;PMS_P2;Temp;Humidity;BMP_temperature;BMP_pressure;BME280_temperature;BME280_humidity;BME280_pressure;Samples;Min_cycle;Max_cycle;Signal;HPM_P1;HPM_P2
2024/03/15 00:01:12;;;;;;;37.30;25.00;;;;;;;;;;104030;1294;545147;-71
2024/03/15 00:04:53;;;;;;;33.50;22.80;;;;;;;;;;103938;1291;544813;-73
2024/03/15 00:08:28;;;;;;;32.90;22.50;;;;;;;;;;103662;1292;545006;-72
2024/03/15 00:12:06;;;;;;;33.30;22.40;;;;;;;;;;103777;1289;544958;-72
2024/03/15 00:15:43;;;;;;;32.00;22.20;;;;;;;;;;103785;1288;545821;-72
2024/03/15 00:19:20;;;;;;;32.30;23.10;;;;;;;;;;103759;1289;545720;-72
2024/03/15 00:23:07;;;;;;;31.60;21.70;;;;;;;;;;103911;1289;545059;-72
2024/03/15 00:26:35;;;;;;;31.00;20.00;;;;;;;;;;103781;1294;544734;-72
2024/03/15 00:30:23;;;;;;;29.50;18.50;;;;;;;;;;103892;1299;545518;-73
2024/03/15 00:33:57;;;;;;;28.40;18.80;;;;;;;;;;104104;1288;544818;-71
2024/03/15 00:37:24;;;;;;;27.10;18.10;;;;;;;;;;103978;1289;544745;-71
2024/03/15 00:41:04;;;;;;;27.00;18.20;;;;;;;;;;104072;1286;546160;-72
2024/03/15 00:44:43;;;;;;;28.40;19.40;;;;;;;;;;103715;1293;544794;-73
2024/03/15 00:48:32;;;;;;;27.90;18.40;;;;;;;;;;103823;1292;545069;-71
2024/03/15 00:51:58;;;;;;;26.40;17.40;;;;;;;;;;103746;1292;545163;-72
2024/03/15 00:55:35;;;;;;;26.30;18.60;;;;;;;;;;103865;1288;544795;-72
2024/03/15 00:59:13;;;;;;;26.10;19.00;;;;;;;;;;103836;1289;545014;-72
2024/03/15 01:02:53;;;;;;;26.20;18.30;;;;;;;;;;103793;1291;545492;-72
2024/03/15 01:06:28;;;;;;;29.10;20.20;;;;;;;;;;103814;1289;545989;-71
2024/03/15 01:10:07;;;;;;;29.60;19.50;;;;;;;;;;103837;1289;544848;-72
2024/03/15 01:13:43;;;;;;;28.50;18.70;;;;;;;;;;103849;1292;545188;-71
2024/03/15 01:17:20;;;;;;;26.60;18.50;;;;;;;;;;104163;1289;544776;-73
2024/03/15 01:21:02;;;;;;;26.20;18.20;;;;;;;;;;103733;1302;544962;-72
2024/03/15 01:24:35;;;;;;;27.30;18.70;;;;;;;;;;104135;1286;545135;-72
2024/03/15 01:28:14;;;;;;;24.20;15.70;;;;;;;;;;103854;1290;544789;-72
2024/03/15 01:31:50;;;;;;;22.00;15.20;;;;;;;;;;103833;1289;545420;-71
2024/03/15 01:35:32;;;;;;;22.50;15.40;;;;;;;;;;103846;1301;545004;-72
2024/03/15 01:39:05;;;;;;;22.00;15.20;;;;;;;;;;103644;1291;544777;-72
2024/03/15 01:42:42;;;;;;;22.50;15.00;;;;;;;;;;103812;1292;544701;-72
2024/03/15 01:46:23;;;;;;;25.50;17.60;;;;;;;;;;103868;1289;544879;-72
2024/03/15 01:49:58;;;;;;;26.40;16.70;;;;;;;;;;103818;1291;544996;-71
2024/03/15 01:53:37;;;;;;;26.60;17.70;;;;;;;;;;103742;1289;545732;-71
2024/03/15 01:57:17;;;;;;;26.80;17.00;;;;;;;;;;103715;1302;545939;-71
2024/03/15 02:00:56;;;;;;;29.30;17.30;;;;;;;;;;103839;1289;545009;-71
2024/03/15 02:04:27;;;;;;;27.90;17.90;;;;;;;;;;104692;1283;545214;-72
2024/03/15 02:08:26;;;;;;;27.20;17.80;;;;;;;;;;103716;1289;545036;-72
2024/03/15 02:11:38;;;;;;;27.30;17.60;;;;;;;;;;104040;1286;545882;-71
2024/03/15 02:15:22;;;;;;;26.50;16.90;;;;;;;;;;103719;1291;544986;-72
2024/03/15 02:19:03;;;;;;;24.60;15.70;;;;;;;;;;103908;1289;544811;-72
2024/03/15 02:22:34;;;;;;;23.80;15.10;;;;;;;;;;103919;1289;544930;-71
2024/03/15 02:26:12;;;;;;;24.50;15.90;;;;;;;;;;103837;1289;544884;-72
2024/03/15 02:29:51;;;;;;;23.60;15.80;;;;;;;;;;103825;1289;546118;-72
2024/03/15 02:33:29;;;;;;;22.00;15.00;;;;;;;;;;103733;1291;546078;-71
2024/03/15 02:37:07;;;;;;;22.20;14.40;;;;;;;;;;104009;1288;544893;-71
2024/03/15 02:40:45;;;;;;;19.10;13.00;;;;;;;;;;103775;1294;545108;-71
2024/03/15 02:44:19;;;;;;;19.10;13.20;;;;;;;;;;103861;1289;545735;-72
2024/03/15 02:47:58;;;;;;;19.80;13.20;;;;;;;;;;103749;1292;545519;-73
2024/03/15 02:51:35;;;;;;;19.80;13.90;;;;;;;;;;103794;1292;545637;-72
2024/03/15 02:55:13;;;;;;;19.20;13.70;;;;;;;;;;103814;1289;545915;-71
2024/03/15 02:58:50;;;;;;;20.10;14.40;;;;;;;;;;103957;1290;544805;-71
2024/03/15 03:02:27;;;;;;;21.80;14.50;;;;;;;;;;104090;1289;546103;-72
2024/03/15 03:06:06;;;;;;;23.90;15.20;;;;;;;;;;103798;1292;545679;-71
2024/03/15 03:09:51;;;;;;;23.10;15.80;;;;;;;;;;103653;1292;545159;-72
2024/03/15 03:13:19;;;;;;;23.40;15.90;;;;;;;;;;103816;1289;545771;-71
2024/03/15 03:16:57;;;;;;;22.50;14.80;;;;;;;;;;103862;1288;544962;-70
2024/03/15 03:20:33;;;;;;;20.50;14.50;;;;;;;;;;103822;1289;544973;-72
2024/03/15 03:24:14;;;;;;;21.50;14.80;;;;;;;;;;103713;1295;544909;-71
2024/03/15 03:27:50;;;;;;;28.90;21.30;;;;;;;;;;104628;1293;545318;-72
2024/03/15 03:31:27;;;;;;;74.90;63.50;;;;;;;;;;103885;1289;544709;-70
2024/03/15 03:35:05;;;;;;;86.00;70.30;;;;;;;;;;103918;1288;546489;-72
2024/03/15 03:38:42;;;;;;;73.30;59.70;;;;;;;;;;103856;1289;545225;-71
2024/03/15 03:42:20;;;;;;;58.70;44.60;;;;;;;;;;103585;1292;544894;-72
2024/03/15 03:45:57;;;;;;;39.60;29.00;;;;;;;;;;103955;1289;544832;-72
2024/03/15 03:49:40;;;;;;;34.90;24.20;;;;;;;;;;103533;1305;545277;-71
2024/03/15 03:53:12;;;;;;;30.00;20.50;;;;;;;;;;104034;1288;544777;-71
2024/03/15 03:56:52;;;;;;;25.50;17.20;;;;;;;;;;103790;1292;545889;-71
2024/03/15 04:00:27;;;;;;;24.90;16.80;;;;;;;;;;103884;1289;545030;-71
2024/03/15 04:04:08;;;;;;;25.60;18.00;;;;;;;;;;103741;1291;544730;-71
2024/03/15 04:07:48;;;;;;;31.90;20.00;;;;;;;;;;103743;1289;545604;-72
2024/03/15 04:11:19;;;;;;;27.00;19.00;;;;;;;;;;103986;1292;545021;-71
2024/03/15 04:14:59;;;;;;;27.00;19.30;;;;;;;;;;103687;1292;546371;-72
2024/03/15 04:18:34;;;;;;;28.80;18.50;;;;;;;;;;103846;1289;545229;-71
2024/03/15 04:22:14;;;;;;;24.80;17.20;;;;;;;;;;104089;1286;545589;-70
2024/03/15 04:25:48;;;;;;;24.00;16.50;;;;;;;;;;104504;1285;545597;-72
2024/03/15 04:29:30;;;;;;;25.00;17.50;;;;;;;;;;103695;1292;547890;-70
2024/03/15 04:33:10;;;;;;;26.00;18.90;;;;;;;;;;103748;1292;545804;-72
2024/03/15 04:36:43;;;;;;;26.30;19.30;;;;;;;;;;103802;1289;545253;-71
2024/03/15 04:40:19;;;;;;;25.50;18.40;;;;;;;;;;103572;1294;545730;-71
2024/03/15 04:43:57;;;;;;;26.20;18.40;;;;;;;;;;103840;1289;544751;-71
2024/03/15 04:47:35;;;;;;;25.70;19.10;;;;;;;;;;103776;1295;544789;-70
2024/03/15 04:51:12;;;;;;;33.30;19.70;;;;;;;;;;103885;1289;544932;-71
2024/03/15 04:54:49;;;;;;;28.10;19.90;;;;;;;;;;103809;1291;545853;-71
2024/03/15 04:58:28;;;;;;;48.30;19.30;;;;;;;;;;103757;1291;545762;-71
2024/03/15 05:02:04;;;;;;;76.00;21.30;;;;;;;;;;103784;1294;545420;-72
2024/03/15 05:05:41;;;;;;;66.00;19.70;;;;;;;;;;103858;1296;545170;-72
2024/03/15 05:09:30;;;;;;;40.30;16.60;;;;;;;;;;103839;1289;545566;-71
2024/03/15 05:12:57;;;;;;;32.50;17.20;;;;;;;;;;103855;1290;545243;-72
2024/03/15 05:16:34;;;;;;;29.40;17.70;;;;;;;;;;103905;1289;545840;-71
2024/03/15 05:20:14;;;;;;;38.10;17.60;;;;;;;;;;103822;1293;545063;-72
2024/03/15 05:24:04;;;;;;;37.80;16.70;;;;;;;;;;103518;1297;545245;-71
2024/03/15 05:27:27;;;;;;;41.80;16.90;;;;;;;;;;103725;1291;546249;-72
2024/03/15 05:31:32;;;;;;;35.80;17.40;;;;;;;;;;103701;1292;544937;-71
2024/03/15 05:34:56;;;;;;;27.70;17.50;;;;;;;;;;104011;1292;545406;-71
2024/03/15 05:38:19;;;;;;;36.30;18.30;;;;;;;;;;103784;1290;545066;-71
2024/03/15 05:41:56;;;;;;;36.50;17.40;;;;;;;;;;103738;1292;544892;-71
2024/03/15 05:45:36;;;;;;;37.70;18.20;;;;;;;;;;103778;1292;545616;-71
2024/03/15 05:49:13;;;;;;;30.00;16.40;;;;;;;;;;103925;1289;544780;-72
2024/03/15 05:52:49;;;;;;;66.50;19.70;;;;;;;;;;103609;1292;545033;-71
2024/03/15 05:56:27;;;;;;;50.80;19.30;;;;;;;;;;103645;1295;546342;-71
2024/03/15 06:00:11;;;;;;;48.50;18.50;;;;;;;;;;103725;1289;545029;-72
2024/03/15 06:03:41;;;;;;;36.20;15.90;;;;;;;;;;104325;1288;544969;-72
2024/03/15 06:11:12;;;;;;;28.70;17.10;;;;;;;;;;104050;1288;545820;-71
2024/03/15 06:14:43;;;;;;;26.00;17.80;;;;;;;;;;103862;1288;544972;-70
2024/03/15 06:18:41;;;;;;;28.00;18.00;;;;;;;;;;103976;1290;546041;-72
2024/03/15 06:22:03;;;;;;;36.10;19.40;;;;;;;;;;103652;1291;544714;-72
2024/03/15 06:25:36;;;;;;;47.10;21.40;;;;;;;;;;103757;1292;545562;-71
2024/03/15 06:29:20;;;;;;;39.50;21.20;;;;;;;;;;103890;1292;545431;-72
2024/03/15 06:32:46;;;;;;;41.40;20.60;;;;;;;;;;103767;1289;546042;-72
2024/03/15 06:36:32;;;;;;;32.80;18.50;;;;;;;;;;103848;1291;545136;-70
2024/03/15 06:40:18;;;;;;;21.00;14.80;;;;;;;;;;103803;1288;544883;-72
2024/03/15 06:43:58;;;;;;;22.80;14.60;;;;;;;;;;103937;1289;545080;-71
2024/03/15 06:47:28;;;;;;;20.90;14.20;;;;;;;;;;103897;1289;544999;-71
2024/03/15 06:52:34;;;;;;;21.10;13.40;;;;;;;;;;103778;1289;545460;-71
2024/03/15 06:54:39;;;;;;;21.00;14.80;;;;;;;;;;103946;1292;544885;-72
2024/03/15 06:58:12;;;;;;;22.00;13.70;;;;;;;;;;103783;1290;545494;-72
2024/03/15 07:01:55;;;;;;;18.40;12.60;;;;;;;;;;103817;1289;545043;-72
2024/03/15 07:05:29;;;;;;;20.10;12.30;;;;;;;;;;103726;1290;544970;-72
2024/03/15 07:09:11;;;;;;;19.70;12.30;;;;;;;;;;103637;1293;545274;-70
2024/03/15 07:12:45;;;;;;;23.10;12.50;;;;;;;;;;103781;1292;545894;-71
2024/03/15 07:16:16;;;;;;;20.60;13.00;;;;;;;;;;103878;1292;545371;-70
2024/03/15 07:20:00;;;;;;;19.00;12.10;;;;;;;;;;103842;1289;545214;-73
2024/03/15 07:23:35;;;;;;;19.30;11.70;;;;;;;;;;103761;1292;544964;-72
2024/03/15 07:27:12;;;;;;;17.40;10.60;;;;;;;;;;103777;1292;545093;-71
2024/03/15 07:30:50;;;;;;;16.30;10.20;;;;;;;;;;103892;1289;544577;-71
2024/03/15 07:34:39;;;;;;;29.20;9.60;;;;;;;;;;103816;1294;544981;-71
2024/03/15 07:38:05;;;;;;;30.70;8.80;;;;;;;;;;104023;1292;544753;-70
2024/03/15 07:41:42;;;;;;;11.30;7.10;;;;;;;;;;103655;1293;545909;-71
2024/03/15 07:45:20;;;;;;;12.30;7.20;;;;;;;;;;103673;1291;545683;-72
2024/03/15 07:49:00;;;;;;;10.80;7.00;;;;;;;;;;103752;1292;545499;-73
2024/03/15 07:52:37;;;;;;;14.90;7.20;;;;;;;;;;103756;1291;544754;-71
2024/03/15 07:56:14;;;;;;;12.40;6.70;;;;;;;;;;103947;1289;544764;-72
2024/03/15 07:59:50;;;;;;;12.90;7.20;;;;;;;;;;103821;1292;546017;-72
2024/03/15 08:03:27;;;;;;;10.80;7.00;;;;;;;;;;104030;1292;544990;-70
2024/03/15 08:07:05;;;;;;;17.20;7.20;;;;;;;;;;103834;1289;545445;-73
2024/03/15 08:10:42;;;;;;;28.40;7.50;;;;;;;;;;103797;1289;545049;-71
2024/03/15 08:14:19;;;;;;;13.10;6.20;;;;;;;;;;103727;1289;545008;-73
2024/03/15 08:17:57;;;;;;;18.20;6.50;;;;;;;;;;103768;1295;544775;-72
2024/03/15 08:21:36;;;;;;;12.70;6.00;;;;;;;;;;103847;1289;546539;-70
2024/03/15 08:25:13;;;;;;;10.80;5.40;;;;;;;;;;103927;1290;545059;-71
2024/03/15 08:28:49;;;;;;;15.00;5.80;;;;;;;;;;103891;1292;544891;-71
2024/03/15 08:32:23;;;;;;;10.60;5.00;;;;;;;;;;103937;1292;544895;-71
2024/03/15 08:36:04;;;;;;;9.40;5.20;;;;;;;;;;103825;1292;545437;-73
2024/03/15 08:39:42;;;;;;;10.30;4.20;;;;;;;;;;103702;1292;545023;-74
2024/03/15 08:43:19;;;;;;;16.40;4.70;;;;;;;;;;103701;1295;545892;-71
2024/03/15 08:46:57;;;;;;;10.90;3.30;;;;;;;;;;103675;1291;545436;-72
2024/03/15 08:50:35;;;;;;;7.00;3.20;;;;;;;;;;103788;1291;545918;-72
2024/03/15 08:54:12;;;;;;;13.90;3.30;;;;;;;;;;103567;1305;544800;-71
2024/03/15 08:57:49;;;;;;;10.60;3.40;;;;;;;;;;103979;1291;544883;-73
2024/03/15 09:01:32;;;;;;;14.70;4.60;;;;;;;;;;103858;1289;544767;-71
2024/03/15 09:05:08;;;;;;;12.50;4.10;;;;;;;;;;103774;1292;545567;-72
2024/03/15 09:08:38;;;;;;;8.10;3.80;;;;;;;;;;103709;1292;546388;-72
2024/03/15 09:12:19;;;;;;;19.10;4.70;;;;;;;;;;103751;1295;545724;-71
2024/03/15 09:15:57;;;;;;;12.90;3.70;;;;;;;;;;103799;1294;545398;-71
2024/03/15 09:19:35;;;;;;;9.20;2.90;;;;;;;;;;103712;1301;544810;-70
2024/03/15 09:23:12;;;;;;;9.40;3.20;;;;;;;;;;104344;1285;544932;-71
2024/03/15 09:26:49;;;;;;;15.00;3.60;;;;;;;;;;103785;1291;545281;-69
2024/03/15 09:30:29;;;;;;;9.90;2.80;;;;;;;;;;103809;1289;544755;-72
2024/03/15 09:34:05;;;;;;;7.00;2.40;;;;;;;;;;103802;1289;544892;-71
2024/03/15 09:37:51;;;;;;;9.00;2.00;;;;;;;;;;103751;1289;546031;-69
2024/03/15 09:41:20;;;;;;;9.50;2.60;;;;;;;;;;103785;1289;545031;-71
2024/03/15 09:44:57;;;;;;;8.10;2.60;;;;;;;;;;104152;1285;545363;-70
2024/03/15 09:48:39;;;;;;;20.80;3.60;;;;;;;;;;103864;1295;544861;-72
2024/03/15 09:52:14;;;;;;;9.50;3.10;;;;;;;;;;103863;1289;544960;-70
2024/03/15 09:55:52;;;;;;;15.70;3.40;;;;;;;;;;104218;1283;544951;-70
2024/03/15 09:59:34;;;;;;;12.10;3.10;;;;;;;;;;103831;1290;545290;-72
2024/03/15 10:03:07;;;;;;;10.90;3.10;;;;;;;;;;103836;1290;545497;-68
2024/03/15 10:06:42;;;;;;;8.40;3.10;;;;;;;;;;103625;1292;545056;-71
2024/03/15 10:10:19;;;;;;;9.30;2.90;;;;;;;;;;103718;1292;544928;-72
2024/03/15 10:13:57;;;;;;;9.30;3.10;;;;;;;;;;103807;1302;544900;-69
2024/03/15 10:17:36;;;;;;;10.00;3.30;;;;;;;;;;104125;1286;545061;-71
2024/03/15 10:21:12;;;;;;;7.40;3.10;;;;;;;;;;103690;1291;545435;-70
2024/03/15 10:24:50;;;;;;;10.90;3.00;;;;;;;;;;103856;1289;544798;-71
2024/03/15 10:28:28;;;;;;;9.40;2.80;;;;;;;;;;103650;1291;545111;-73
2024/03/15 10:32:10;;;;;;;8.80;3.00;;;;;;;;;;103682;1291;545180;-72
2024/03/15 10:35:41;;;;;;;23.40;4.20;;;;;;;;;;104546;1285;545144;-71
2024/03/15 10:39:20;;;;;;;7.20;3.60;;;;;;;;;;103884;1289;545024;-70
2024/03/15 10:43:00;;;;;;;9.00;3.70;;;;;;;;;;103936;1292;544956;-72
2024/03/15 10:46:35;;;;;;;10.50;3.80;;;;;;;;;;103765;1289;546963;-71
2024/03/15 10:50:11;;;;;;;26.60;5.10;;;;;;;;;;103855;1290;544959;-71
2024/03/15 10:53:51;;;;;;;7.30;3.10;;;;;;;;;;103763;1292;544762;-70
2024/03/15 10:57:23;;;;;;;7.30;3.30;;;;;;;;;;103885;1292;544784;-70
2024/03/15 11:01:04;;;;;;;6.40;2.50;;;;;;;;;;104249;1285;546063;-71
2024/03/15 11:04:42;;;;;;;7.80;2.80;;;;;;;;;;103570;1294;545093;-71
2024/03/15 11:08:20;;;;;;;6.90;2.50;;;;;;;;;;103917;1289;545236;-73
2024/03/15 11:12:00;;;;;;;9.60;3.20;;;;;;;;;;103721;1295;544965;-71
2024/03/15 11:15:37;;;;;;;6.50;2.80;;;;;;;;;;103878;1289;545355;-72
2024/03/15 11:19:14;;;;;;;7.40;3.00;;;;;;;;;;103762;1289;545614;-74
2024/03/15 11:22:58;;;;;;;8.30;3.40;;;;;;;;;;103823;1289;545359;-73
2024/03/15 11:26:22;;;;;;;8.40;3.20;;;;;;;;;;103712;1292;545138;-73
2024/03/15 11:30:04;;;;;;;7.30;3.00;;;;;;;;;;103706;1292;545602;-73
2024/03/15 11:33:41;;;;;;;7.30;2.80;;;;;;;;;;104107;1289;544978;-72
2024/03/15 11:37:23;;;;;;;6.80;3.40;;;;;;;;;;103684;1291;545694;-72
2024/03/15 11:40:58;;;;;;;8.10;3.20;;;;;;;;;;103746;1291;545207;-73
2024/03/15 11:44:35;;;;;;;6.70;2.50;;;;;;;;;;103738;1292;544845;-73
2024/03/15 11:48:18;;;;;;;6.00;3.20;;;;;;;;;;103649;1292;545040;-71
2024/03/15 17:59:50;;;;;;;21.10;13.90;;;;;;;;;;104394;1289;545354;-73
2024/03/15 18:03:31;;;;;;;22.50;14.30;;;;;;;;;;103726;1292;545770;-72
2024/03/15 18:07:12;;;;;;;22.40;15.20;;;;;;;;;;104452;1289;544949;-70
2024/03/15 18:11:19;;;;;;;;;;;;;;;;;;;;;
2024/03/15 18:14:24;;;;;;;23.90;17.30;;;;;;;;;;103864;1291;545038;-72
2024/03/15 18:18:02;;;;;;;28.30;18.00;;;;;;;;;;103797;1289;545410;-73
2024/03/15 18:21:39;;;;;;;25.20;17.20;;;;;;;;;;103906;1291;544908;-72
2024/03/15 18:25:16;;;;;;;21.30;14.00;;;;;;;;;;103707;1292;545119;-73
2024/03/15 18:28:55;;;;;;;19.50;13.40;;;;;;;;;;103792;1288;544597;-72
2024/03/15 18:32:32;;;;;;;18.50;12.60;;;;;;;;;;103753;1289;546015;-72
2024/03/15 18:36:19;;;;;;;19.70;13.70;;;;;;;;;;103872;1288;545827;-73
2024/03/15 18:39:47;;;;;;;20.10;13.80;;;;;;;;;;103843;1290;544714;-72
2024/03/15 18:43:24;;;;;;;24.90;17.80;;;;;;;;;;104079;1289;545443;-73
2024/03/15 18:47:08;;;;;;;22.00;15.70;;;;;;;;;;103788;1292;545563;-73
2024/03/15 18:50:42;;;;;;;17.30;12.60;;;;;;;;;;103795;1295;546440;-71
2024/03/15 18:54:20;;;;;;;17.80;13.00;;;;;;;;;;103939;1289;545313;-72
2024/03/15 18:58:01;;;;;;;18.40;13.00;;;;;;;;;;103771;1291;544797;-72
2024/03/15 19:01:32;;;;;;;18.40;13.60;;;;;;;;;;103801;1288;546369;-72
2024/03/15 19:05:12;;;;;;;23.00;15.40;;;;;;;;;;103720;1292;545437;-73
2024/03/15 19:08:50;;;;;;;23.70;16.50;;;;;;;;;;103965;1301;544711;-71
2024/03/15 19:12:25;;;;;;;18.90;13.10;;;;;;;;;;103815;1290;545397;-72
2024/03/15 19:16:01;;;;;;;18.50;12.50;;;;;;;;;;103802;1289;545408;-72
2024/03/15 19:19:39;;;;;;;15.80;11.70;;;;;;;;;;103667;1291;544814;-71
2024/03/15 19:23:16;;;;;;;18.40;12.30;;;;;;;;;;103832;1289;545942;-72
2024/03/15 19:26:54;;;;;;;20.20;13.20;;;;;;;;;;103976;1292;545043;-71
2024/03/15 19:30:31;;;;;;;17.50;12.40;;;;;;;;;;103791;1291;544963;-72
2024/03/15 19:34:11;;;;;;;23.00;15.40;;;;;;;;;;103686;1297;544809;-70
2024/03/15 19:37:43;;;;;;;20.90;16.80;;;;;;;;;;103793;1292;545005;-72
2024/03/15 19:41:26;;;;;;;25.20;17.70;;;;;;;;;;103656;1289;545475;-71
2024/03/15 19:45:02;;;;;;;25.00;16.70;;;;;;;;;;103817;1290;544989;-72
2024/03/15 19:48:38;;;;;;;24.40;16.70;;;;;;;;;;103689;1292;545757;-71
2024/03/15 19:52:16;;;;;;;24.80;17.10;;;;;;;;;;103851;1289;545010;-71
2024/03/15 19:55:54;;;;;;;24.90;17.20;;;;;;;;;;103853;1292;545408;-72
2024/03/15 19:59:33;;;;;;;24.00;16.00;;;;;;;;;;103820;1289;544813;-71
2024/03/15 20:03:29;;;;;;;21.10;14.60;;;;;;;;;;103907;1289;544751;-71
2024/03/15 20:06:46;;;;;;;21.00;15.40;;;;;;;;;;103880;1289;545587;-71
2024/03/15 20:10:31;;;;;;;20.20;13.50;;;;;;;;;;103786;1292;544980;-71
2024/03/15 20:14:01;;;;;;;19.80;12.90;;;;;;;;;;103822;1292;545048;-73
2024/03/15 20:17:39;;;;;;;16.00;11.00;;;;;;;;;;104293;1286;545866;-71
2024/03/15 20:21:17;;;;;;;15.00;10.10;;;;;;;;;;103820;1289;545063;-71
2024/03/15 20:24:56;;;;;;;15.50;9.40;;;;;;;;;;103895;1289;544866;-72
2024/03/15 20:28:46;;;;;;;;;;;;;;;;;;;;;
2024/03/15 20:32:31;;;;;;;12.40;7.30;;;;;;;;;;103661;1292;544825;-71
2024/03/15 20:35:42;;;;;;;15.00;7.80;;;;;;;;;;103730;1290;545040;-72
2024/03/15 20:39:23;;;;;;;12.90;8.00;;;;;;;;;;103800;1290;544734;-73
2024/03/15 20:43:00;;;;;;;11.80;6.90;;;;;;;;;;103814;1289;545489;-72
2024/03/15 20:46:38;;;;;;;12.30;7.70;;;;;;;;;;103761;1291;544824;-72
2024/03/15 20:50:15;;;;;;;13.60;8.60;;;;;;;;;;103996;1286;545033;-72
2024/03/15 20:53:53;;;;;;;15.10;9.80;;;;;;;;;;103674;1291;545247;-72
2024/03/15 20:57:31;;;;;;;15.90;9.50;;;;;;;;;;103750;1295;544825;-72
2024/03/15 21:01:08;;;;;;;15.90;9.50;;;;;;;;;;103826;1290;545633;-73
2024/03/15 21:04:45;;;;;;;13.10;9.40;;;;;;;;;;103680;1296;545135;-71
2024/03/15 21:08:23;;;;;;;15.80;10.30;;;;;;;;;;103845;1289;545529;-72
2024/03/15 21:11:59;;;;;;;16.00;11.00;;;;;;;;;;103819;1289;544750;-73
2024/03/15 21:15:39;;;;;;;16.10;10.20;;;;;;;;;;103763;1292;545025;-72
2024/03/15 21:19:15;;;;;;;14.30;9.20;;;;;;;;;;103723;1291;544991;-70
2024/03/15 21:23:23;;;;;;;13.10;7.90;;;;;;;;;;103651;1292;545265;-77
2024/03/15 21:26:34;;;;;;;13.10;8.60;;;;;;;;;;103475;1292;545652;-72
2024/03/15 21:30:31;;;;;;;13.10;9.10;;;;;;;;;;103824;1292;545421;-73
2024/03/15 21:33:46;;;;;;;15.10;9.50;;;;;;;;;;103776;1289;545447;-72
2024/03/15 21:37:19;;;;;;;14.00;9.10;;;;;;;;;;103791;1293;545346;-71
2024/03/15 21:41:03;;;;;;;14.10;8.60;;;;;;;;;;103848;1291;544994;-72
2024/03/15 21:44:42;;;;;;;15.50;10.30;;;;;;;;;;103872;1295;545584;-72
2024/03/15 21:48:21;;;;;;;14.60;9.80;;;;;;;;;;103841;1289;545349;-70
2024/03/15 21:51:55;;;;;;;15.50;9.70;;;;;;;;;;103750;1289;545114;-72
2024/03/15 21:55:37;;;;;;;15.30;10.30;;;;;;;;;;103754;1292;544981;-72
2024/03/15 21:59:09;;;;;;;16.10;11.00;;;;;;;;;;103745;1289;545073;-71
2024/03/15 22:03:05;;;;;;;15.70;10.70;;;;;;;;;;103906;1295;546630;-72
2024/03/15 22:06:53;;;;;;;16.80;11.70;;;;;;;;;;103800;1292;544931;-72
2024/03/15 22:10:00;;;;;;;17.20;11.60;;;;;;;;;;104142;1286;544933;-72
2024/03/15 22:13:40;;;;;;;18.50;12.00;;;;;;;;;;103719;1295;545032;-72
2024/03/15 22:17:15;;;;;;;17.90;12.40;;;;;;;;;;103747;1291;544836;-71
2024/03/15 22:20:52;;;;;;;19.90;12.70;;;;;;;;;;104064;1288;545861;-71
2024/03/15 22:24:30;;;;;;;19.40;12.60;;;;;;;;;;103772;1290;545509;-71
2024/03/15 22:28:08;;;;;;;21.50;13.30;;;;;;;;;;103811;1289;545522;-72
2024/03/15 22:31:54;;;;;;;19.90;13.10;;;;;;;;;;103837;1289;544692;-72
2024/03/15 22:35:22;;;;;;;17.90;12.60;;;;;;;;;;103717;1292;544984;-72
2024/03/15 22:39:00;;;;;;;17.30;11.30;;;;;;;;;;103688;1291;544855;-71
2024/03/15 22:42:40;;;;;;;14.40;8.90;;;;;;;;;;103616;1291;546196;-72
2024/03/15 22:46:16;;;;;;;12.40;8.00;;;;;;;;;;103704;1290;544879;-72
2024/03/15 22:49:53;;;;;;;12.90;8.40;;;;;;;;;;103720;1292;544624;-70
2024/03/15 22:53:30;;;;;;;13.30;8.80;;;;;;;;;;103988;1289;544991;-71
2024/03/15 22:57:13;;;;;;;13.30;8.60;;;;;;;;;;103772;1292;544871;-72
2024/03/15 23:00:52;;;;;;;14.20;8.10;;;;;;;;;;103748;1290;545162;-72
2024/03/15 23:04:23;;;;;;;12.60;8.40;;;;;;;;;;103923;1289;545135;-70
2024/03/15 23:07:56;;;;;;;12.60;8.60;;;;;;;;;;103644;1295;544902;-72
2024/03/15 23:12:10;;;;;;;14.10;9.20;;;;;;;;;;103843;1294;545628;-73
2024/03/15 23:15:51;;;;;;;12.70;8.60;;;;;;;;;;103688;1289;545944;-72
2024/03/15 23:19:12;;;;;;;13.60;8.80;;;;;;;;;;103805;1292;544777;-71
2024/03/15 23:22:30;;;;;;;13.90;9.20;;;;;;;;;;103858;1289;544734;-71
2024/03/15 23:26:10;;;;;;;13.30;9.70;;;;;;;;;;103905;1295;545142;-73
2024/03/15 23:29:44;;;;;;;15.10;9.90;;;;;;;;;;103859;1295;545029;-71
2024/03/15 23:33:28;;;;;;;14.40;9.80;;;;;;;;;;103779;1299;545410;-71
2024/03/15 23:37:00;;;;;;;13.70;9.40;;;;;;;;;;103804;1290;544891;-72
2024/03/15 23:40:43;;;;;;;15.50;10.20;;;;;;;;;;103859;1289;544665;-72
2024/03/15 23:44:30;;;;;;;14.60;10.00;;;;;;;;;;103717;1295;544971;-71
2024/03/15 23:47:52;;;;;;;15.20;10.30;;;;;;;;;;103721;1291;544931;-73
2024/03/15 23:51:29;;;;;;;12.40;9.10;;;;;;;;;;103761;1291;545010;-72
2024/03/15 23:55:15;;;;;;;13.90;9.50;;;;;;;;;;103701;1291;545652;-72
2024/03/15 23:59:09;;;;;;;;;;;;;;;;;;;;;
